Time;durP1;ratioP1;P1;durP2;ratioP2;P2;SDS_P1;SDS_P2;PMS_P1;PMS_P2;Temp;Humidity;BMP_temperature;BMP_pressure;BME280_temperature;BME280_humidity;BME280_pressure;Samples;Min_cycle;Max_cycle;Signal;HPM_P1;HPM_P2
2021/06/28 00:00:12;;;;;;;12.88;6.15;;;;;;;15.47;nan;101764.81;5032894;28;21729;-46
2021/06/28 00:02:38;;;;;;;8.48;5.38;;;;;;;15.44;nan;101763.47;5032236;28;20562;-46
2021/06/28 00:05:09;;;;;;;7.90;4.85;;;;;;;15.37;nan;101755.53;5034867;28;20190;-45
2021/06/28 00:07:34;;;;;;;10.00;5.35;;;;;;;15.34;nan;101766.03;5034305;28;20051;-46
2021/06/28 00:10:01;;;;;;;36.53;6.78;;;;;;;15.28;nan;101756.28;5031080;28;20483;-48
2021/06/28 00:12:26;;;;;;;27.95;5.97;;;;;;;15.25;nan;101762.16;5035308;28;20040;-45
2021/06/28 00:14:52;;;;;;;16.52;5.43;;;;;;;15.20;nan;101762.94;5034562;28;20241;-45
2021/06/28 00:17:17;;;;;;;58.90;7.97;;;;;;;15.17;nan;101766.13;5032196;28;20457;-45
2021/06/28 00:19:42;;;;;;;21.20;6.45;;;;;;;15.16;nan;101764.50;5034711;28;20029;-46
2021/06/28 00:22:08;;;;;;;8.45;5.40;;;;;;;15.17;nan;101762.63;5032101;28;20021;-47
2021/06/28 00:24:34;;;;;;;11.93;5.88;;;;;;;15.11;nan;101762.59;5032420;28;20086;-48
2021/06/28 00:26:59;;;;;;;10.68;5.35;;;;;;;15.06;nan;101761.69;5029261;28;20022;-48
2021/06/28 00:29:25;;;;;;;12.70;5.90;;;;;;;15.02;nan;101758.69;5034952;28;20035;-46
2021/06/28 00:31:54;;;;;;;11.55;5.90;;;;;;;14.97;nan;101755.13;5031981;28;20021;-46
2021/06/28 00:34:19;;;;;;;12.77;6.07;;;;;;;14.94;nan;101759.16;5032054;28;20031;-46
2021/06/28 00:36:45;;;;;;;12.95;6.13;;;;;;;14.88;nan;101762.03;5018093;28;20033;-47
2021/06/28 00:39:10;;;;;;;10.73;6.97;;;;;;;14.80;nan;101772.19;5034845;28;20051;-48
2021/06/28 00:41:36;;;;;;;11.20;5.88;;;;;;;14.63;nan;101766.03;5027717;28;20028;-46
2021/06/28 00:44:01;;;;;;;11.18;6.78;;;;;;;14.64;nan;101767.69;5030574;28;20079;-46
2021/06/28 00:46:27;;;;;;;10.63;6.38;;;;;;;14.67;nan;101766.34;5031060;28;20487;-47
2021/06/28 00:48:52;;;;;;;8.60;5.85;;;;;;;14.71;nan;101768.28;5029256;28;20033;-45
2021/06/28 00:51:18;;;;;;;9.77;5.82;;;;;;;14.72;nan;101772.66;5032582;28;20394;-46
2021/06/28 00:53:44;;;;;;;12.25;6.57;;;;;;;14.70;nan;101772.06;5031473;28;20260;-45
2021/06/28 00:56:10;;;;;;;18.23;6.20;;;;;;;14.65;nan;101779.28;5036254;28;20035;-46
2021/06/28 00:58:38;;;;;;;9.07;6.15;;;;;;;14.64;nan;101773.06;5031546;28;20048;-45
2021/06/28 01:01:03;;;;;;;12.98;6.53;;;;;;;14.62;nan;101779.78;5036081;28;20036;-46
2021/06/28 01:03:29;;;;;;;10.63;6.82;;;;;;;14.56;nan;101778.09;5036015;28;20395;-49
2021/06/28 01:05:55;;;;;;;14.98;6.65;;;;;;;14.53;nan;101774.00;5036035;28;20021;-46
2021/06/28 01:08:20;;;;;;;54.00;9.40;;;;;;;14.53;nan;101768.59;5021569;28;20033;-45
2021/06/28 01:10:45;;;;;;;39.67;8.15;;;;;;;14.46;nan;101778.75;5035985;28;20211;-48
2021/06/28 01:13:11;;;;;;;39.90;9.45;;;;;;;14.44;nan;101772.81;5032991;28;20060;-46
2021/06/28 01:15:37;;;;;;;36.35;8.68;;;;;;;14.40;nan;101774.34;5018094;28;20017;-45
2021/06/28 01:18:04;;;;;;;13.93;6.68;;;;;;;14.32;nan;101770.16;5037250;28;20035;-47
2021/06/28 01:20:30;;;;;;;9.95;6.30;;;;;;;14.16;nan;101774.50;5035248;28;20033;-49
2021/06/28 01:23:10;;;;;;;9.60;6.80;;;;;;;14.18;nan;101775.13;5035744;28;20026;-46
2021/06/28 01:25:35;;;;;;;69.25;8.45;;;;;;;14.25;nan;101772.22;5038742;28;20017;-45
2021/06/28 01:28:01;;;;;;;75.95;9.40;;;;;;;14.29;nan;101775.25;5036852;28;20492;-46
2021/06/28 01:30:29;;;;;;;46.50;8.07;;;;;;;14.27;nan;101769.28;5038256;28;20103;-46
2021/06/28 01:32:56;;;;;;;19.80;6.85;;;;;;;14.23;nan;101776.25;5035802;28;20036;-46
2021/06/28 01:35:22;;;;;;;13.30;6.35;;;;;;;14.23;nan;101770.84;5037291;28;20486;-45
2021/06/28 01:37:47;;;;;;;17.00;7.00;;;;;;;14.17;nan;101768.06;5034515;28;20048;-47
2021/06/28 01:40:15;;;;;;;36.33;7.65;;;;;;;14.16;nan;101771.00;5036409;28;20028;-45
2021/06/28 01:42:40;;;;;;;16.00;7.05;;;;;;;14.17;nan;101769.94;5035764;28;20116;-45
2021/06/28 01:45:19;;;;;;;10.60;6.95;;;;;;;14.15;nan;101767.50;5037527;28;20111;-45
2021/06/28 01:47:45;;;;;;;10.13;6.60;;;;;;;14.16;nan;101762.91;5035109;28;20029;-46
2021/06/28 01:50:13;;;;;;;10.23;6.60;;;;;;;14.13;nan;101766.13;5035809;28;20497;-46
2021/06/28 01:52:39;;;;;;;12.65;6.25;;;;;;;14.09;nan;101767.69;5024324;28;20033;-46
2021/06/28 01:55:08;;;;;;;11.93;6.40;;;;;;;14.04;nan;101765.72;5035950;28;20036;-45
2021/06/28 01:57:40;;;;;;;10.95;6.47;;;;;;;13.98;nan;101774.78;5035988;28;20037;-45
2021/06/28 02:00:07;;;;;;;18.27;6.68;;;;;;;13.96;nan;101770.69;5037927;28;20104;-46
2021/06/28 02:02:32;;;;;;;17.13;6.75;;;;;;;13.89;nan;101770.88;5033984;28;20115;-46
2021/06/28 02:04:57;;;;;;;12.10;6.25;;;;;;;13.82;nan;101762.13;5034345;28;20156;-46
2021/06/28 02:07:24;;;;;;;15.93;7.13;;;;;;;13.77;nan;101756.66;5028562;28;20240;-46
2021/06/28 02:09:51;;;;;;;11.05;6.40;;;;;;;13.75;nan;101761.47;5034071;28;20028;-47
2021/06/28 02:12:16;;;;;;;14.13;6.90;;;;;;;13.71;nan;101760.34;5033299;28;20029;-49
2021/06/28 02:14:42;;;;;;;10.68;6.57;;;;;;;13.68;nan;101769.72;5035644;28;20032;-46
2021/06/28 02:17:07;;;;;;;12.30;6.45;;;;;;;13.66;nan;101761.06;5033744;28;20048;-49
2021/06/28 02:19:33;;;;;;;14.05;7.50;;;;;;;13.61;nan;101769.88;5038547;28;20120;-46
2021/06/28 02:21:59;;;;;;;12.75;7.03;;;;;;;13.57;nan;101763.34;5034303;28;20510;-47
2021/06/28 02:24:24;;;;;;;11.20;7.18;;;;;;;13.54;nan;101763.81;5033745;28;20048;-45
2021/06/28 02:26:50;;;;;;;12.82;7.05;;;;;;;13.52;nan;101763.25;5036243;28;20483;-45
2021/06/28 02:29:16;;;;;;;14.55;7.85;;;;;;;13.51;nan;101769.72;5021990;28;20052;-46
2021/06/28 02:31:42;;;;;;;10.13;7.03;;;;;;;13.54;nan;101768.41;5035226;28;20384;-47
2021/06/28 02:34:08;;;;;;;13.57;6.80;;;;;;;13.51;nan;101767.00;5034374;28;20025;-46
2021/06/28 02:36:34;;;;;;;11.13;7.15;;;;;;;13.47;nan;101768.56;5038732;28;20294;-45
2021/06/28 02:39:00;;;;;;;12.30;7.45;;;;;;;13.43;nan;101766.56;5025025;28;20468;-47
2021/06/28 02:41:26;;;;;;;10.35;7.38;;;;;;;13.40;nan;101767.88;5033598;28;20036;-46
2021/06/28 02:43:53;;;;;;;10.40;7.13;;;;;;;13.36;nan;101765.91;5033487;28;20649;-46
2021/06/28 02:46:20;;;;;;;12.45;6.80;;;;;;;13.39;nan;101766.25;5035708;28;20094;-46
2021/06/28 02:48:46;;;;;;;11.15;7.00;;;;;;;13.35;nan;101765.09;5035454;28;20040;-47
2021/06/28 02:51:13;;;;;;;9.50;6.55;;;;;;;13.34;nan;101771.53;5032870;28;20021;-46
2021/06/28 02:53:39;;;;;;;11.32;6.85;;;;;;;13.38;nan;101769.19;5031845;28;20212;-45
2021/06/28 02:56:14;;;;;;;8.88;6.00;;;;;;;13.37;nan;101762.97;5035758;28;20028;-46
2021/06/28 02:58:57;;;;;;;10.10;6.22;;;;;;;13.31;nan;101763.97;5032354;28;20044;-45
2021/06/28 03:01:25;;;;;;;13.02;7.47;;;;;;;13.34;nan;101758.09;5032318;28;20684;-45
2021/06/28 03:03:51;;;;;;;11.43;7.63;;;;;;;13.33;nan;101755.63;5032741;28;20040;-46
2021/06/28 03:06:18;;;;;;;17.23;7.85;;;;;;;13.35;nan;101759.72;5033100;28;20026;-46
2021/06/28 03:08:44;;;;;;;17.27;8.52;;;;;;;13.35;nan;101754.34;5034946;28;20070;-46
2021/06/28 03:11:10;;;;;;;17.73;9.07;;;;;;;13.35;nan;101746.25;5032576;28;20263;-47
2021/06/28 03:13:37;;;;;;;26.95;8.40;;;;;;;13.33;nan;101756.47;5032767;28;20032;-47
2021/06/28 03:16:04;;;;;;;15.98;7.72;;;;;;;13.37;nan;101757.59;5033071;28;20021;-46
2021/06/28 03:18:31;;;;;;;13.80;7.20;;;;;;;13.40;nan;101746.34;5033435;28;20579;-46
2021/06/28 03:20:56;;;;;;;11.43;7.32;;;;;;;13.42;nan;101751.47;5034067;28;20549;-46
2021/06/28 03:23:22;;;;;;;18.90;8.30;;;;;;;13.39;nan;101746.59;5031818;28;20044;-47
2021/06/28 03:25:48;;;;;;;12.57;8.32;;;;;;;13.41;nan;101745.28;5032385;28;20448;-45
2021/06/28 03:28:13;;;;;;;11.23;8.05;;;;;;;13.42;nan;101743.41;5035722;28;20037;-46
2021/06/28 03:30:39;;;;;;;10.25;7.07;;;;;;;13.42;nan;101744.22;5033642;28;20272;-45
2021/06/28 03:33:05;;;;;;;11.88;7.53;;;;;;;13.41;nan;101747.97;5034602;28;20056;-46
2021/06/28 03:35:32;;;;;;;12.73;8.73;;;;;;;13.41;nan;101747.16;5035139;28;20566;-46
2021/06/28 03:37:58;;;;;;;11.85;8.38;;;;;;;13.43;nan;101740.47;5036340;28;20033;-46
2021/06/28 03:40:23;;;;;;;10.52;7.93;;;;;;;13.40;nan;101740.16;5032895;28;20025;-48
2021/06/28 03:42:49;;;;;;;11.45;7.25;;;;;;;13.42;nan;101744.22;5036320;28;20501;-45
2021/06/28 03:45:15;;;;;;;11.73;7.00;;;;;;;13.42;nan;101746.91;5033978;28;20029;-45
2021/06/28 03:47:41;;;;;;;12.73;7.15;;;;;;;13.45;nan;101748.28;5033413;28;20029;-45
2021/06/28 03:50:09;;;;;;;9.55;7.45;;;;;;;13.47;nan;101738.94;5033676;28;20107;-45
2021/06/28 03:52:35;;;;;;;9.88;7.05;;;;;;;13.49;nan;101750.28;5037287;28;20021;-46
2021/06/28 03:55:01;;;;;;;8.90;7.05;;;;;;;13.53;nan;101746.03;5038252;28;20035;-45
2021/06/28 03:57:27;;;;;;;10.20;7.55;;;;;;;13.59;nan;101747.75;5032229;28;20036;-49
2021/06/28 03:59:52;;;;;;;9.55;7.03;;;;;;;13.64;nan;101757.78;5041410;28;20241;-45
2021/06/28 04:02:18;;;;;;;14.27;7.18;;;;;;;13.71;nan;101754.94;5037200;28;20025;-48
2021/06/28 04:04:48;;;;;;;9.38;7.00;;;;;;;13.77;nan;101756.66;5038854;28;20044;-49
2021/06/28 04:07:16;;;;;;;8.88;6.57;;;;;;;13.83;nan;101753.00;5034651;28;20025;-46
2021/06/28 04:09:42;;;;;;;13.15;7.50;;;;;;;13.89;nan;101746.63;5034539;28;20033;-46
2021/06/28 04:12:10;;;;;;;13.23;8.52;;;;;;;13.99;nan;101754.84;5030754;28;20557;-46
2021/06/28 04:14:37;;;;;;;12.65;8.48;;;;;;;14.06;nan;101750.13;5034317;28;20036;-47
2021/06/28 04:17:02;;;;;;;10.68;8.50;;;;;;;14.17;nan;101754.59;5032046;28;20048;-47
2021/06/28 04:19:28;;;;;;;12.00;9.05;;;;;;;14.26;nan;101754.19;5032214;28;20074;-48
2021/06/28 04:21:53;;;;;;;15.82;8.95;;;;;;;14.31;nan;101765.03;5034067;28;20598;-48
2021/06/28 04:24:19;;;;;;;14.05;9.52;;;;;;;14.36;nan;101765.09;5034780;28;20498;-46
2021/06/28 04:26:44;;;;;;;12.20;8.55;;;;;;;14.43;nan;101765.75;5032359;28;20357;-49
2021/06/28 04:29:10;;;;;;;14.52;9.35;;;;;;;14.58;nan;101774.06;5034815;28;20035;-48
2021/06/28 04:31:37;;;;;;;15.18;10.25;;;;;;;14.76;nan;101767.56;5035588;28;20064;-48
2021/06/28 04:34:03;;;;;;;12.27;9.18;;;;;;;14.82;nan;101778.16;5036219;28;20035;-47
2021/06/28 04:36:28;;;;;;;14.00;9.57;;;;;;;14.87;nan;101780.09;5037038;28;20029;-45
2021/06/28 04:38:54;;;;;;;15.60;9.52;;;;;;;14.90;nan;101778.78;5037658;28;20021;-47
2021/06/28 04:41:19;;;;;;;11.05;8.90;;;;;;;14.84;nan;101782.47;5018052;28;20348;-46
2021/06/28 04:43:45;;;;;;;17.15;9.10;;;;;;;14.92;nan;101776.66;5024630;28;20124;-45
2021/06/28 04:46:10;;;;;;;13.75;9.23;;;;;;;14.98;nan;101779.16;5035038;28;20031;-47
2021/06/28 04:48:36;;;;;;;14.65;9.40;;;;;;;15.02;nan;101766.78;5037699;28;20029;-47
2021/06/28 04:51:01;;;;;;;11.30;8.25;;;;;;;15.09;nan;101763.91;5034897;28;20034;-46
2021/06/28 04:53:26;;;;;;;13.90;7.88;;;;;;;15.16;nan;101764.50;5032856;28;20044;-46
2021/06/28 04:55:52;;;;;;;13.02;8.77;;;;;;;15.21;nan;101764.56;5038009;28;20024;-46
2021/06/28 04:58:17;;;;;;;13.75;9.30;;;;;;;15.29;nan;101760.59;5034475;28;20021;-46
2021/06/28 05:00:43;;;;;;;14.13;8.93;;;;;;;15.35;nan;101760.38;5034022;28;20372;-47
2021/06/28 05:03:08;;;;;;;14.57;8.68;;;;;;;15.43;nan;101764.50;5019547;28;20516;-47
2021/06/28 05:05:34;;;;;;;14.25;8.43;;;;;;;15.49;nan;101766.19;5036211;28;20055;-48
2021/06/28 05:07:59;;;;;;;18.40;10.82;;;;;;;15.59;nan;101760.09;5033025;28;20236;-46
2021/06/28 05:10:25;;;;;;;15.38;10.55;;;;;;;15.60;nan;101754.44;5035727;28;20025;-46
2021/06/28 05:12:50;;;;;;;15.40;10.77;;;;;;;15.70;nan;101753.72;5039321;28;20243;-47
2021/06/28 05:15:16;;;;;;;14.45;10.20;;;;;;;15.78;nan;101755.13;5032485;28;20017;-47
2021/06/28 05:17:42;;;;;;;15.40;11.80;;;;;;;15.85;nan;101761.94;5037246;28;20099;-45
2021/06/28 05:20:09;;;;;;;16.05;11.80;;;;;;;15.79;nan;101759.44;5038360;28;20033;-47
2021/06/28 05:22:35;;;;;;;18.73;11.77;;;;;;;15.89;nan;101759.53;5032518;28;20123;-46
2021/06/28 05:25:01;;;;;;;14.30;10.68;;;;;;;15.91;nan;101765.50;5037530;28;20052;-46
2021/06/28 05:27:27;;;;;;;16.98;11.50;;;;;;;16.01;nan;101769.09;5030106;28;20029;-47
2021/06/28 05:29:56;;;;;;;15.73;11.07;;;;;;;16.10;nan;101757.78;5012521;28;20036;-47
2021/06/28 05:32:26;;;;;;;17.30;11.32;;;;;;;16.24;nan;101769.78;5031955;28;20034;-45
2021/06/28 05:34:52;;;;;;;18.17;11.77;;;;;;;16.34;nan;101767.16;5032283;28;20032;-46
2021/06/28 05:37:19;;;;;;;17.75;11.02;;;;;;;16.46;nan;101761.53;5032735;28;20060;-46
2021/06/28 05:39:46;;;;;;;16.50;11.30;;;;;;;16.57;nan;101768.63;5035036;28;20032;-46
2021/06/28 05:42:12;;;;;;;16.67;11.05;;;;;;;16.69;nan;101771.13;5031684;28;20049;-46
2021/06/28 05:44:38;;;;;;;18.10;12.07;;;;;;;16.87;nan;101768.75;5034629;28;20024;-46
2021/06/28 05:47:03;;;;;;;19.05;12.02;;;;;;;17.05;nan;101770.16;5036654;28;20021;-45
2021/06/28 05:49:31;;;;;;;21.50;11.68;;;;;;;17.22;nan;101765.34;5033521;28;20544;-46
2021/06/28 05:51:58;;;;;;;16.63;11.25;;;;;;;17.49;nan;101775.97;5033999;28;20235;-46
2021/06/28 05:54:23;;;;;;;17.02;10.93;;;;;;;17.71;nan;101766.81;5033806;28;20021;-48
2021/06/28 05:56:49;;;;;;;16.70;10.40;;;;;;;17.86;nan;101768.69;5035431;28;20033;-47
2021/06/28 05:59:14;;;;;;;14.27;9.93;;;;;;;18.03;nan;101770.03;5034503;28;20442;-48
2021/06/28 06:01:40;;;;;;;12.90;9.90;;;;;;;18.13;nan;101769.19;5039089;28;20028;-46
2021/06/28 06:04:07;;;;;;;15.88;9.73;;;;;;;18.38;nan;101761.03;5040161;28;20082;-46
2021/06/28 06:06:33;;;;;;;14.75;9.65;;;;;;;18.67;nan;101771.25;5033977;28;20124;-46
2021/06/28 06:08:59;;;;;;;12.23;9.50;;;;;;;18.84;nan;101763.59;5040811;28;20116;-46
2021/06/28 06:11:24;;;;;;;11.90;9.27;;;;;;;18.97;nan;101759.47;5039430;28;20033;-47
2021/06/28 06:13:50;;;;;;;16.30;10.07;;;;;;;19.26;nan;101759.56;5037639;28;20467;-47
2021/06/28 06:16:15;;;;;;;14.88;9.18;;;;;;;19.49;nan;101755.31;5038240;28;20418;-48
2021/06/28 06:18:41;;;;;;;12.18;8.60;;;;;;;19.84;nan;101759.69;5039453;28;20028;-47
2021/06/28 06:21:06;;;;;;;11.95;8.82;;;;;;;20.24;nan;101753.03;5035882;28;20021;-46
2021/06/28 06:23:32;;;;;;;15.15;8.30;;;;;;;20.58;nan;101757.59;5036731;28;20069;-46
2021/06/28 06:25:57;;;;;;;11.45;7.72;;;;;;;20.89;nan;101750.66;5034252;28;20109;-48
2021/06/28 06:28:23;;;;;;;9.60;5.85;;;;;;;21.25;nan;101750.19;5037653;28;20104;-47
2021/06/28 06:30:48;;;;;;;11.23;6.90;;;;;;;21.51;nan;101745.16;5036528;28;20113;-47
2021/06/28 06:33:14;;;;;;;12.75;7.50;;;;;;;21.82;nan;101746.25;5032720;28;20091;-47
2021/06/28 06:35:40;;;;;;;11.55;7.53;;;;;;;22.16;nan;101747.88;5034956;28;20045;-46
2021/06/28 06:38:06;;;;;;;10.77;7.00;;;;;;;22.30;nan;101740.50;5032834;28;20069;-46
2021/06/28 06:40:31;;;;;;;9.60;6.20;;;;;;;22.40;nan;101743.03;5038102;28;20040;-46
2021/06/28 06:42:58;;;;;;;6.20;5.43;;;;;;;22.51;nan;101744.44;5034073;28;20037;-46
2021/06/28 06:45:24;;;;;;;8.98;6.18;;;;;;;22.56;nan;101749.78;5036569;28;20121;-47
2021/06/28 06:47:50;;;;;;;8.73;5.90;;;;;;;22.60;nan;101753.53;5032369;28;20159;-47
2021/06/28 06:50:17;;;;;;;9.43;6.18;;;;;;;22.73;nan;101753.81;5035031;28;20127;-46
2021/06/28 06:52:44;;;;;;;8.25;6.15;;;;;;;23.07;nan;101758.84;5034755;28;20168;-46
2021/06/28 06:55:11;;;;;;;7.95;5.78;;;;;;;23.51;nan;101758.09;5033209;28;20025;-46
2021/06/28 06:57:37;;;;;;;7.70;4.68;;;;;;;24.11;nan;101753.03;5035131;28;20052;-47
2021/06/28 07:00:06;;;;;;;7.28;5.43;;;;;;;24.68;nan;101747.59;5033087;28;20479;-50
2021/06/28 07:02:32;;;;;;;6.65;5.50;;;;;;;25.20;nan;101738.66;5034732;28;20033;-46
2021/06/28 07:04:57;;;;;;;9.85;6.18;;;;;;;25.30;nan;101743.81;5032501;28;20028;-47
2021/06/28 07:07:23;;;;;;;7.80;5.63;;;;;;;25.39;nan;101743.81;5035213;28;20033;-47
2021/06/28 07:09:49;;;;;;;6.70;5.50;;;;;;;25.47;nan;101749.28;5036089;28;20024;-47
2021/06/28 07:12:15;;;;;;;10.43;6.00;;;;;;;25.39;nan;101758.34;5035464;28;20028;-47
2021/06/28 07:14:40;;;;;;;6.78;6.05;;;;;;;25.47;nan;101753.97;5036597;28;20013;-48
2021/06/28 07:17:06;;;;;;;9.65;6.10;;;;;;;25.34;nan;101754.97;5032566;28;20510;-47
2021/06/28 07:19:31;;;;;;;6.65;5.07;;;;;;;25.27;nan;101766.41;5036656;28;20052;-48
2021/06/28 07:21:57;;;;;;;7.95;5.15;;;;;;;25.32;nan;101760.78;5034148;28;20479;-49
2021/06/28 07:24:23;;;;;;;10.75;5.15;;;;;;;25.28;nan;101765.25;5035153;28;20056;-47
2021/06/28 07:26:48;;;;;;;6.30;5.30;;;;;;;25.34;nan;101777.72;5031347;28;20395;-46
2021/06/28 07:29:15;;;;;;;6.57;5.55;;;;;;;25.46;nan;101777.84;5031915;28;20052;-47
2021/06/28 07:31:41;;;;;;;5.68;5.05;;;;;;;25.26;nan;101783.97;5032111;28;20546;-48
2021/06/28 07:34:07;;;;;;;9.60;5.25;;;;;;;25.51;nan;101783.19;5035795;28;20122;-48
2021/06/28 07:36:33;;;;;;;8.18;5.70;;;;;;;25.76;nan;101784.31;5037351;28;20277;-46
2021/06/28 07:39:02;;;;;;;6.47;5.32;;;;;;;25.82;nan;101777.50;5022483;28;20055;-49
2021/06/28 07:41:29;;;;;;;7.22;5.40;;;;;;;26.01;nan;101773.59;5039533;28;20021;-48
2021/06/28 07:43:56;;;;;;;8.38;5.05;;;;;;;25.92;nan;101770.88;5037682;28;20222;-47
2021/06/28 07:46:22;;;;;;;7.35;5.45;;;;;;;25.98;nan;101772.31;5036585;28;20043;-47
2021/06/28 07:48:47;;;;;;;7.10;5.90;;;;;;;26.09;nan;101770.03;5034658;28;20021;-47
2021/06/28 07:51:13;;;;;;;11.10;6.05;;;;;;;26.21;nan;101770.13;5026080;28;20676;-46
2021/06/28 07:53:38;;;;;;;9.80;5.75;;;;;;;26.39;nan;101768.13;5036977;28;20032;-47
2021/06/28 07:56:19;;;;;;;8.48;5.82;;;;;;;26.58;nan;101768.53;5035246;28;20067;-47
2021/06/28 07:58:47;;;;;;;8.02;6.03;;;;;;;26.52;nan;101766.31;5036626;28;20060;-47
2021/06/28 08:01:13;;;;;;;9.50;6.22;;;;;;;26.58;nan;101760.31;5036458;28;20029;-47
2021/06/28 08:03:45;;;;;;;7.20;5.60;;;;;;;26.59;nan;101764.66;5025152;28;20021;-47
2021/06/28 08:06:15;;;;;;;7.43;6.28;;;;;;;26.58;nan;101765.78;5033167;28;20020;-46
2021/06/28 08:08:41;;;;;;;7.75;5.70;;;;;;;26.66;nan;101764.13;5035750;28;20398;-46
2021/06/28 08:11:09;;;;;;;9.60;5.82;;;;;;;26.54;nan;101767.56;5035452;28;20024;-46
2021/06/28 08:13:42;;;;;;;7.65;6.30;;;;;;;26.40;nan;101765.09;5034540;28;20087;-47
2021/06/28 08:16:08;;;;;;;10.45;5.82;;;;;;;26.52;nan;101761.59;5032340;28;20033;-47
2021/06/28 08:18:34;;;;;;;8.60;5.82;;;;;;;26.64;nan;101769.97;5032707;28;20058;-46
2021/06/28 08:21:03;;;;;;;7.82;5.35;;;;;;;26.78;nan;101767.78;5032779;28;20032;-47
2021/06/28 08:23:29;;;;;;;6.97;4.50;;;;;;;27.07;nan;101766.94;5036994;28;20029;-46
2021/06/28 08:25:54;;;;;;;6.40;4.90;;;;;;;27.37;nan;101770.41;5033775;28;20102;-46
2021/06/28 08:28:20;;;;;;;6.00;4.57;;;;;;;27.51;nan;101764.63;5036101;28;20490;-46
2021/06/28 08:30:45;;;;;;;6.50;4.35;;;;;;;27.80;nan;101763.72;5037745;28;20021;-47
2021/06/28 08:33:11;;;;;;;6.68;4.88;;;;;;;28.12;nan;101761.25;5034941;28;20033;-47
2021/06/28 08:35:37;;;;;;;5.82;5.15;;;;;;;28.42;nan;101754.41;5039133;28;20525;-47
2021/06/28 08:38:03;;;;;;;4.20;3.80;;;;;;;28.52;nan;101753.13;5037015;28;20040;-47
2021/06/28 08:40:30;;;;;;;5.68;4.63;;;;;;;28.57;nan;101750.97;5036129;28;20057;-47
2021/06/28 08:42:56;;;;;;;4.53;4.05;;;;;;;28.70;nan;101746.22;5035280;28;20086;-47
2021/06/28 08:45:24;;;;;;;5.03;4.22;;;;;;;28.71;nan;101742.31;5034835;28;20463;-47
2021/06/28 08:47:50;;;;;;;5.05;4.55;;;;;;;28.53;nan;101744.50;5034468;28;20495;-46
2021/06/28 08:50:15;;;;;;;6.25;4.30;;;;;;;28.55;nan;101753.25;5031767;28;20075;-47
2021/06/28 08:52:43;;;;;;;4.63;3.85;;;;;;;28.49;nan;101753.81;5036302;28;20029;-47
2021/06/28 08:55:10;;;;;;;4.32;3.88;;;;;;;28.59;nan;101756.94;5030396;28;20032;-46
2021/06/28 08:57:37;;;;;;;5.53;4.10;;;;;;;28.53;nan;101755.53;5037428;28;20020;-46
2021/06/28 09:00:10;;;;;;;5.82;3.63;;;;;;;28.57;nan;101745.44;5032860;28;20216;-46
2021/06/28 09:02:36;;;;;;;4.63;4.10;;;;;;;28.82;nan;101745.41;5031747;28;20017;-47
2021/06/28 09:05:08;;;;;;;4.15;3.75;;;;;;;29.02;nan;101741.69;5030838;28;20174;-47
2021/06/28 09:07:33;;;;;;;6.90;3.70;;;;;;;29.40;nan;101743.16;5015573;28;20029;-47
2021/06/28 09:09:59;;;;;;;4.70;3.80;;;;;;;29.59;nan;101746.09;5031097;28;20033;-46
2021/06/28 09:12:25;;;;;;;7.95;4.03;;;;;;;29.78;nan;101748.97;5030531;28;20041;-47
2021/06/28 09:14:56;;;;;;;6.10;3.40;;;;;;;29.81;nan;101747.47;5031781;28;20037;-47
2021/06/28 09:17:27;;;;;;;6.90;3.53;;;;;;;29.95;nan;101744.25;5030322;28;20041;-48
2021/06/28 09:20:13;;;;;;;3.40;3.10;;;;;;;30.08;nan;101743.06;5033029;28;20028;-47
2021/06/28 09:22:39;;;;;;;2.60;2.20;;;;;;;30.05;nan;101743.78;5032965;28;20231;-47
2021/06/28 09:25:07;;;;;;;2.78;2.58;;;;;;;29.91;nan;101740.59;5032640;28;20048;-47
2021/06/28 09:27:41;;;;;;;3.83;2.45;;;;;;;29.80;nan;101743.09;5035280;28;20029;-48
2021/06/28 09:30:16;;;;;;;3.10;2.85;;;;;;;29.39;nan;101738.81;5036204;28;20095;-47
2021/06/28 09:32:59;;;;;;;4.25;3.38;;;;;;;29.72;nan;101738.53;5031136;28;20028;-47
2021/06/28 09:35:32;;;;;;;3.35;3.05;;;;;;;29.37;nan;101746.63;5035447;28;20090;-47
2021/06/28 09:38:07;;;;;;;3.00;2.70;;;;;;;29.44;nan;101738.53;5036460;28;20107;-46
2021/06/28 09:40:37;;;;;;;3.35;2.97;;;;;;;29.67;nan;101742.38;5039619;28;20037;-46
2021/06/28 09:43:25;;;;;;;2.45;2.17;;;;;;;29.27;nan;101736.91;5035590;28;20448;-46
2021/06/28 09:45:55;;;;;;;2.72;2.40;;;;;;;29.24;nan;101731.28;5034420;28;20110;-46
2021/06/28 09:48:31;;;;;;;2.75;2.45;;;;;;;28.95;nan;101732.41;5037837;28;20041;-47
2021/06/28 09:51:19;;;;;;;2.80;2.60;;;;;;;29.22;nan;101731.63;5031937;28;20034;-47
2021/06/28 09:53:54;;;;;;;2.92;2.50;;;;;;;29.74;nan;101733.47;5034776;28;20025;-47
2021/06/28 09:56:31;;;;;;;2.50;2.28;;;;;;;29.84;nan;101730.19;5034527;28;20025;-47
2021/06/28 09:58:57;;;;;;;3.35;2.58;;;;;;;29.48;nan;101733.97;5034225;28;20025;-46
2021/06/28 10:01:26;;;;;;;4.03;2.63;;;;;;;29.56;nan;101734.94;5043259;22;20489;-48
2021/06/28 10:03:54;;;;;;;2.85;2.55;;;;;;;29.87;nan;101739.72;5021561;28;20113;-49
2021/06/28 10:08:50;;;;;;;3.30;2.80;;;;;;;30.12;nan;101730.13;5024441;28;20025;-48
2021/06/28 10:11:27;;;;;;;10.70;3.15;;;;;;;30.23;nan;101725.66;5024124;28;20025;-50
2021/06/28 10:13:59;;;;;;;2.38;2.17;;;;;;;30.28;nan;101722.63;5024895;28;20028;-48
2021/06/28 10:16:28;;;;;;;6.95;2.00;;;;;;;29.56;nan;101730.22;5023469;28;20033;-48
2021/06/28 10:18:55;;;;;;;2.58;2.38;;;;;;;29.72;nan;101720.00;5009090;28;20207;-47
2021/06/28 10:21:22;;;;;;;3.97;2.67;;;;;;;30.00;nan;101716.38;5023303;28;20040;-48
2021/06/28 10:23:47;;;;;;;4.03;2.60;;;;;;;29.87;nan;101712.09;5021839;28;20228;-49
2021/06/28 10:26:13;;;;;;;2.60;2.40;;;;;;;30.25;nan;101709.50;5022916;28;20110;-48
2021/06/28 10:28:40;;;;;;;2.47;2.28;;;;;;;30.60;nan;101711.50;5021805;28;20040;-48
2021/06/28 10:31:08;;;;;;;3.72;2.88;;;;;;;30.78;nan;101712.72;5010976;28;20028;-48
2021/06/28 10:33:36;;;;;;;2.38;2.10;;;;;;;30.93;nan;101711.06;5022967;28;20025;-48
2021/06/28 10:36:05;;;;;;;2.40;2.10;;;;;;;31.11;nan;101708.66;5023501;28;20139;-50
2021/06/28 10:38:49;;;;;;;3.08;2.10;;;;;;;31.17;nan;101708.00;5023621;28;20021;-47
2021/06/28 10:41:43;;;;;;;2.90;2.30;;;;;;;31.17;nan;101701.66;5023792;28;20120;-47
2021/06/28 10:44:15;;;;;;;2.42;2.22;;;;;;;31.31;nan;101695.63;5019661;28;20021;-50
2021/06/28 10:46:42;;;;;;;10.38;2.50;;;;;;;31.57;nan;101699.25;5020876;28;20064;-49
2021/06/28 10:49:09;;;;;;;3.80;2.45;;;;;;;31.67;nan;101694.31;5020735;28;20072;-47
2021/06/28 10:51:50;;;;;;;3.85;2.10;;;;;;;31.59;nan;101696.13;5022272;28;20033;-49
2021/06/28 10:54:36;;;;;;;2.20;2.00;;;;;;;31.50;nan;101695.59;5021600;28;20033;-48
2021/06/28 10:57:04;;;;;;;2.50;2.08;;;;;;;31.34;nan;101684.59;5022768;28;20379;-48
2021/06/28 10:59:42;;;;;;;4.13;2.08;;;;;;;30.81;nan;101694.59;5023796;28;20021;-50
2021/06/28 11:02:10;;;;;;;3.35;2.83;;;;;;;30.92;nan;101690.09;5018007;28;20025;-50
2021/06/28 11:04:53;;;;;;;2.55;2.00;;;;;;;30.33;nan;101686.38;5023402;28;20017;-49
2021/06/28 11:07:19;;;;;;;2.55;2.20;;;;;;;30.73;nan;101682.59;5021264;28;20025;-48
2021/06/28 11:09:53;;;;;;;2.60;2.40;;;;;;;31.41;nan;101672.84;5021665;28;20124;-49
2021/06/28 11:12:25;;;;;;;2.53;2.33;;;;;;;31.58;nan;101686.22;5001168;28;20037;-49
2021/06/28 11:15:05;;;;;;;2.15;1.95;;;;;;;31.48;nan;101678.53;5021994;28;20029;-49
2021/06/28 11:17:48;;;;;;;1.88;1.75;;;;;;;31.46;nan;101670.59;5021692;28;20025;-51
2021/06/28 11:20:38;;;;;;;3.40;1.98;;;;;;;31.69;nan;101667.81;5022642;28;20518;-48
2021/06/28 11:23:09;;;;;;;2.83;2.17;;;;;;;31.79;nan;101669.22;5022171;28;20475;-52
2021/06/28 11:25:40;;;;;;;2.13;1.88;;;;;;;32.30;nan;101660.50;5016164;28;20030;-51
2021/06/28 11:28:05;;;;;;;2.45;2.17;;;;;;;32.64;nan;101653.03;5019921;28;20526;-52
2021/06/28 11:30:37;;;;;;;4.43;2.50;;;;;;;32.69;nan;101656.31;5022929;28;20037;-50
2021/06/28 11:33:04;;;;;;;2.95;2.28;;;;;;;32.83;nan;101654.88;5022268;28;20017;-50
2021/06/28 11:35:34;;;;;;;6.20;2.30;;;;;;;32.94;nan;101653.03;5023870;28;20475;-50
2021/06/28 11:38:28;;;;;;;2.10;1.90;;;;;;;32.98;nan;101653.88;5019132;28;20029;-51
2021/06/28 11:40:55;;;;;;;2.58;2.00;;;;;;;32.93;nan;101648.66;5019742;28;20029;-48